Time;durP1;ratioP1;P1;durP2;ratioP2;P2;SDS_P1;SDS_P2;PMS_P1;PMS_P2;Temp;Humidity;BMP_temperature;BMP_pressure;BME280_temperature;BME280_humidity;BME280_pressure;Samples;Min_cycle;Max_cycle;Signal;HPM_P1;HPM_P2
2022/12/05 00:01:01;;;;;;;48.30;27.03;;;5.00;92.40;;;;;;5012139;28;20176;-90
2022/12/05 00:03:27;;;;;;;36.13;21.47;;;5.00;92.40;;;;;;5012991;28;20204;-90
2022/12/05 00:05:52;;;;;;;51.10;29.07;;;5.00;92.40;;;;;;5012143;28;20181;-90
2022/12/05 00:08:18;;;;;;;50.93;28.63;;;5.00;92.40;;;;;;5011981;28;20220;-90
2022/12/05 00:10:43;;;;;;;46.43;28.13;;;5.00;92.40;;;;;;5012015;28;20186;-91
2022/12/05 00:13:09;;;;;;;46.70;27.97;;;4.90;92.50;;;;;;5012004;28;20205;-90
2022/12/05 00:15:39;;;;;;;48.80;27.20;;;5.00;92.50;;;;;;5012177;28;20192;-90
2022/12/05 00:18:05;;;;;;;50.20;29.13;;;4.90;92.60;;;;;;5012294;28;20181;-90
2022/12/05 00:20:31;;;;;;;44.77;25.33;;;4.90;92.70;;;;;;5012336;28;20173;-89
2022/12/05 00:22:57;;;;;;;44.13;27.90;;;4.90;92.80;;;;;;5012242;28;20203;-89
2022/12/05 00:25:22;;;;;;;37.57;23.17;;;4.90;92.90;;;;;;5012962;28;20195;-90
2022/12/05 00:27:48;;;;;;;43.10;25.97;;;4.90;93.00;;;;;;5012192;28;20644;-90
2022/12/05 00:30:13;;;;;;;45.00;28.23;;;4.90;93.10;;;;;;5011756;28;20709;-90
2022/12/05 00:32:39;;;;;;;49.10;27.93;;;4.80;93.10;;;;;;5013474;28;20270;-90
2022/12/05 00:35:05;;;;;;;39.23;24.47;;;4.80;93.20;;;;;;5015498;28;20223;-89
2022/12/05 00:37:30;;;;;;;45.63;28.37;;;4.80;93.30;;;;;;5016725;28;20218;-90
2022/12/05 00:39:56;;;;;;;41.63;27.23;;;4.80;93.40;;;;;;5016685;28;20208;-90
2022/12/05 00:42:24;;;;;;;43.13;26.90;;;4.80;93.50;;;;;;5015484;28;20184;-90
2022/12/05 00:44:49;;;;;;;39.67;26.20;;;4.80;93.50;;;;;;5015598;28;20207;-90
2022/12/05 00:47:15;;;;;;;39.20;26.63;;;4.80;93.60;;;;;;5015804;28;20204;-89
2022/12/05 00:49:41;;;;;;;37.93;23.77;;;4.80;93.70;;;;;;5015807;28;20175;-89
2022/12/05 00:52:06;;;;;;;38.57;25.53;;;4.80;93.80;;;;;;5016256;28;20184;-89
2022/12/05 00:54:32;;;;;;;36.87;22.97;;;4.80;93.90;;;;;;5016901;28;20246;-89
2022/12/05 00:56:57;;;;;;;35.07;21.80;;;4.80;93.90;;;;;;5016475;28;20208;-89
2022/12/05 00:59:28;;;;;;;33.87;22.93;;;4.80;94.00;;;;;;5015209;28;20279;-89
2022/12/05 01:01:54;;;;;;;36.00;23.27;;;4.80;94.00;;;;;;5015346;28;20184;-89
2022/12/05 01:04:22;;;;;;;40.00;25.00;;;4.80;94.10;;;;;;5016244;28;20201;-89
2022/12/05 01:06:49;;;;;;;39.57;24.67;;;4.80;94.10;;;;;;5014987;28;20260;-89
2022/12/05 01:09:17;;;;;;;36.03;25.37;;;4.80;94.10;;;;;;5014970;28;20177;-89
2022/12/05 01:11:43;;;;;;;39.77;24.83;;;4.80;94.10;;;;;;5016256;28;20186;-89
2022/12/05 01:14:10;;;;;;;39.03;25.63;;;4.80;94.20;;;;;;5014964;28;20196;-90
2022/12/05 01:16:38;;;;;;;37.27;25.53;;;4.80;94.20;;;;;;5014916;28;20191;-89
2022/12/05 01:19:11;;;;;;;41.70;26.43;;;4.80;94.20;;;;;;5014747;28;20183;-89
2022/12/05 01:21:37;;;;;;;41.27;24.73;;;4.80;94.30;;;;;;5015188;28;20170;-91
2022/12/05 01:24:02;;;;;;;43.10;27.13;;;4.80;94.30;;;;;;5014398;28;20662;-90
2022/12/05 01:26:28;;;;;;;44.43;27.70;;;4.80;94.30;;;;;;5015288;28;20220;-91
2022/12/05 01:28:54;;;;;;;43.70;28.93;;;4.80;94.30;;;;;;5014733;28;20216;-91
2022/12/05 01:31:21;;;;;;;41.80;26.30;;;4.80;94.30;;;;;;5014839;28;20553;-91
2022/12/05 01:33:47;;;;;;;38.47;25.33;;;4.80;94.40;;;;;;5014999;28;20195;-91
2022/12/05 01:36:13;;;;;;;42.37;25.97;;;4.80;94.40;;;;;;5017731;28;20541;-92
2022/12/05 01:38:40;;;;;;;36.27;23.77;;;4.80;94.50;;;;;;5018394;28;20177;-92
2022/12/05 01:41:08;;;;;;;34.00;24.03;;;4.80;94.50;;;;;;5014979;28;20180;-91
2022/12/05 01:43:56;;;;;;;37.70;25.13;;;4.80;94.50;;;;;;5014948;28;20201;-91
2022/12/05 01:46:23;;;;;;;33.37;23.27;;;4.90;94.60;;;;;;5015115;28;20172;-91
2022/12/05 01:48:49;;;;;;;37.33;23.80;;;4.80;94.60;;;;;;5014045;28;20242;-90
2022/12/05 01:51:16;;;;;;;31.27;22.30;;;4.90;94.60;;;;;;5014431;28;20180;-90
2022/12/05 01:53:42;;;;;;;34.03;24.07;;;4.90;94.70;;;;;;5014109;28;20200;-90
2022/12/05 01:56:08;;;;;;;37.67;24.43;;;4.90;94.70;;;;;;5014039;28;20187;-90
2022/12/05 01:58:38;;;;;;;36.90;24.47;;;4.90;94.70;;;;;;5013960;28;20191;-90
2022/12/05 02:01:03;;;;;;;36.80;22.70;;;4.90;94.70;;;;;;5013984;28;20563;-90
2022/12/05 02:03:30;;;;;;;31.53;22.13;;;4.90;94.80;;;;;;5014095;28;20204;-90
2022/12/05 02:05:57;;;;;;;31.10;22.70;;;4.90;94.80;;;;;;5014170;28;20649;-90
2022/12/05 02:08:26;;;;;;;33.03;22.43;;;4.90;94.90;;;;;;5013839;28;20286;-90
2022/12/05 02:10:54;;;;;;;32.57;22.77;;;5.00;94.90;;;;;;5013791;28;20184;-90
2022/12/05 02:14:05;;;;;;;31.93;22.20;;;5.00;94.90;;;;;;5013638;28;20586;-90
2022/12/05 02:16:50;;;;;;;28.30;19.57;;;5.00;94.90;;;;;;4992050;28;20235;-89
2022/12/05 02:19:52;;;;;;;29.97;20.23;;;5.00;95.00;;;;;;5013682;28;20260;-90
2022/12/05 02:22:39;;;;;;;28.80;20.33;;;5.00;95.00;;;;;;5013648;28;20187;-90
2022/12/05 02:25:37;;;;;;;26.10;19.70;;;5.00;95.00;;;;;;5013640;28;20262;-90
2022/12/05 02:28:43;;;;;;;25.03;18.93;;;5.00;95.00;;;;;;5013608;28;20685;-90
2022/12/05 02:31:33;;;;;;;25.63;18.37;;;5.00;95.10;;;;;;5013917;28;20193;-90
2022/12/05 02:34:09;;;;;;;25.43;19.23;;;5.00;95.10;;;;;;5013367;28;20204;-90
2022/12/05 02:37:36;;;;;;;24.60;19.87;;;5.00;95.10;;;;;;5013441;28;20169;-90
2022/12/05 02:40:07;;;;;;;27.57;19.03;;;5.10;95.20;;;;;;4945319;28;20180;-90
2022/12/05 02:42:52;;;;;;;28.33;18.67;;;5.10;95.20;;;;;;5013109;28;20211;-90
2022/12/05 02:45:22;;;;;;;25.90;18.57;;;5.10;95.20;;;;;;5014020;28;20271;-90
2022/12/05 02:47:51;;;;;;;23.47;18.43;;;5.10;95.20;;;;;;5013491;28;20205;-91
2022/12/05 02:50:21;;;;;;;27.63;19.87;;;5.10;95.20;;;;;;5013249;28;20657;-91
2022/12/05 02:52:48;;;;;;;23.93;18.30;;;5.10;95.20;;;;;;5013095;28;20161;-90
2022/12/05 02:55:16;;;;;;;26.47;18.73;;;5.10;95.30;;;;;;5013596;28;20174;-90
2022/12/05 02:57:47;;;;;;;28.77;19.10;;;5.10;95.30;;;;;;5013060;28;20209;-90
2022/12/05 03:00:14;;;;;;;23.53;17.90;;;5.10;95.30;;;;;;5014235;28;20168;-90
2022/12/05 03:02:40;;;;;;;25.03;19.20;;;5.20;95.30;;;;;;5012852;28;20267;-90
2022/12/05 03:05:32;;;;;;;26.63;18.67;;;5.20;95.30;;;;;;5012700;28;20682;-90
2022/12/05 03:08:00;;;;;;;25.97;18.47;;;5.10;95.30;;;;;;5012850;28;20292;-90
2022/12/05 03:10:29;;;;;;;24.70;18.37;;;5.20;95.30;;;;;;5012996;28;20264;-90
2022/12/05 03:13:01;;;;;;;21.50;17.10;;;5.20;95.40;;;;;;5012704;28;20623;-91
2022/12/05 03:15:35;;;;;;;23.83;17.13;;;5.20;95.40;;;;;;5012776;28;20231;-90
2022/12/05 03:18:16;;;;;;;26.53;18.20;;;5.20;95.40;;;;;;5012840;28;20715;-90
2022/12/05 03:20:46;;;;;;;23.50;16.43;;;5.20;95.40;;;;;;5012654;28;20179;-90
2022/12/05 03:23:19;;;;;;;21.93;16.43;;;5.20;95.40;;;;;;5012631;28;20209;-91
2022/12/05 03:26:11;;;;;;;23.93;16.30;;;5.20;95.40;;;;;;5012572;28;20173;-91
2022/12/05 03:29:14;;;;;;;19.83;15.87;;;5.20;95.50;;;;;;5012444;28;20201;-90
2022/12/05 03:31:49;;;;;;;16.97;15.17;;;5.20;95.50;;;;;;5013623;28;20692;-91
2022/12/05 03:34:27;;;;;;;21.63;16.33;;;5.20;95.50;;;;;;5013290;28;20203;-91
2022/12/05 03:36:54;;;;;;;17.80;14.40;;;5.30;95.50;;;;;;5012853;28;20173;-91
2022/12/05 03:39:30;;;;;;;18.37;14.87;;;5.30;95.50;;;;;;5012647;28;20338;-91
2022/12/05 03:42:10;;;;;;;17.77;14.20;;;5.20;95.50;;;;;;5012414;28;20219;-91
2022/12/05 03:45:02;;;;;;;16.03;13.43;;;5.30;95.50;;;;;;5012742;28;20193;-91
2022/12/05 03:47:53;;;;;;;15.80;13.20;;;5.30;95.50;;;;;;5011913;28;20216;-91
2022/12/05 03:50:24;;;;;;;15.03;13.20;;;5.30;95.60;;;;;;5012624;28;20168;-92
2022/12/05 03:53:08;;;;;;;14.13;12.63;;;5.30;95.60;;;;;;5012372;28;20180;-92
2022/12/05 03:55:38;;;;;;;13.73;12.33;;;5.30;95.60;;;;;;5012591;28;20515;-91
2022/12/05 03:58:16;;;;;;;14.00;11.73;;;5.30;95.60;;;;;;5013013;28;20235;-92
2022/12/05 04:00:45;;;;;;;14.93;11.43;;;5.30;95.60;;;;;;5012483;28;20180;-91
2022/12/05 04:03:25;;;;;;;12.83;10.33;;;5.30;95.60;;;;;;5013359;28;20657;-91
2022/12/05 04:06:01;;;;;;;10.53;9.43;;;5.30;95.70;;;;;;5012502;28;20176;-92
2022/12/05 04:08:57;;;;;;;17.37;11.77;;;5.30;95.70;;;;;;5014833;28;20228;-92
2022/12/05 04:11:26;;;;;;;10.40;9.00;;;5.30;95.70;;;;;;5011388;28;20696;-91
2022/12/05 04:14:13;;;;;;;9.80;8.80;;;5.30;95.70;;;;;;5016656;28;20753;-91
2022/12/05 04:17:02;;;;;;;10.50;9.00;;;5.30;95.70;;;;;;5016399;28;20263;-92
2022/12/05 04:22:31;;;;;;;8.20;7.40;;;5.30;95.70;;;;;;5018388;28;20163;-91
2022/12/05 04:28:05;;;;;;;7.13;6.53;;;5.30;95.80;;;;;;5018278;28;20577;-92
2022/12/05 04:30:35;;;;;;;7.13;6.43;;;5.30;95.80;;;;;;5017167;28;20192;-92
2022/12/05 04:33:10;;;;;;;8.03;7.10;;;5.30;95.80;;;;;;5017535;28;20165;-92
2022/12/05 04:35:43;;;;;;;6.63;5.93;;;5.30;95.80;;;;;;5016521;28;20670;-92
2022/12/05 04:38:17;;;;;;;6.10;5.63;;;5.30;95.80;;;;;;5016840;28;20181;-92
2022/12/05 04:40:58;;;;;;;6.23;5.73;;;5.30;95.80;;;;;;5016288;28;20172;-92
2022/12/05 04:43:25;;;;;;;6.07;5.60;;;5.30;95.80;;;;;;5016888;28;20207;-92
2022/12/05 04:45:52;;;;;;;6.27;5.77;;;5.30;95.80;;;;;;5016870;28;20188;-92
2022/12/05 04:48:20;;;;;;;6.40;5.90;;;5.30;95.80;;;;;;5016746;28;20208;-92
2022/12/05 04:50:48;;;;;;;6.37;5.87;;;5.30;95.80;;;;;;5016981;28;20268;-92
2022/12/05 04:53:15;;;;;;;6.43;5.83;;;5.30;95.80;;;;;;5016332;28;20272;-92
2022/12/05 04:55:45;;;;;;;6.80;5.83;;;5.30;95.80;;;;;;5016987;28;20196;-92
2022/12/05 04:58:18;;;;;;;6.13;5.73;;;5.30;95.80;;;;;;5017440;28;20557;-92
2022/12/05 05:00:57;;;;;;;6.97;6.20;;;5.30;95.80;;;;;;5017004;28;20181;-92
2022/12/05 05:03:33;;;;;;;7.13;6.43;;;5.30;95.80;;;;;;5018051;28;20205;-92
2022/12/05 05:05:59;;;;;;;7.53;6.83;;;5.30;95.80;;;;;;5017699;28;20738;-92
2022/12/05 05:08:27;;;;;;;7.00;6.33;;;5.30;95.80;;;;;;5017553;28;20292;-93
2022/12/05 05:11:10;;;;;;;8.47;6.00;;;5.30;95.80;;;;;;5018967;28;20184;-93
2022/12/05 05:13:36;;;;;;;7.50;6.80;;;5.30;95.80;;;;;;5017514;28;20564;-92
2022/12/05 05:16:02;;;;;;;7.23;6.53;;;5.30;95.80;;;;;;5016505;28;20182;-91
2022/12/05 05:18:27;;;;;;;7.70;6.93;;;5.30;95.90;;;;;;5015937;28;20240;-92
2022/12/05 05:20:53;;;;;;;7.60;6.90;;;5.30;95.80;;;;;;5016122;28;20239;-91
2022/12/05 05:23:19;;;;;;;8.27;7.53;;;5.30;95.80;;;;;;5016415;28;20705;-91
2022/12/05 05:25:44;;;;;;;8.60;7.80;;;5.30;95.80;;;;;;5017507;28;20208;-92
2022/12/05 05:28:10;;;;;;;8.77;7.97;;;5.30;95.80;;;;;;5017604;28;20197;-92
2022/12/05 05:30:41;;;;;;;9.37;8.43;;;5.30;95.90;;;;;;5017886;28;20183;-93
2022/12/05 05:33:07;;;;;;;8.43;7.63;;;5.30;95.80;;;;;;5018578;28;20192;-92
2022/12/05 05:35:35;;;;;;;8.10;7.40;;;5.30;95.80;;;;;;5016704;28;20201;-92
2022/12/05 05:38:01;;;;;;;8.03;6.97;;;5.30;95.80;;;;;;5016907;28;20185;-92
2022/12/05 05:40:26;;;;;;;8.40;7.60;;;5.30;95.80;;;;;;5018232;28;20275;-92
2022/12/05 05:42:52;;;;;;;9.97;8.93;;;5.30;95.80;;;;;;5017935;28;20229;-92
2022/12/05 05:45:18;;;;;;;9.90;7.73;;;5.30;95.90;;;;;;5020281;28;20185;-92
2022/12/05 05:47:46;;;;;;;9.00;8.10;;;5.30;95.80;;;;;;5019974;28;20554;-93
2022/12/05 05:50:12;;;;;;;12.03;8.47;;;5.30;95.80;;;;;;5018744;28;20307;-93
2022/12/05 05:52:38;;;;;;;11.27;8.03;;;5.30;95.80;;;;;;5019459;28;20557;-93
2022/12/05 05:55:05;;;;;;;9.80;8.83;;;5.30;95.90;;;;;;5018507;28;20208;-92
2022/12/05 05:57:31;;;;;;;10.10;8.80;;;5.30;95.80;;;;;;5018433;28;20323;-92
2022/12/05 06:00:03;;;;;;;9.70;8.13;;;5.30;95.80;;;;;;5018717;28;20204;-92
2022/12/05 06:02:33;;;;;;;9.97;8.63;;;5.30;95.90;;;;;;5021210;28;20284;-93
2022/12/05 06:04:59;;;;;;;14.40;10.00;;;5.30;95.90;;;;;;5018873;28;20201;-93
2022/12/05 06:07:25;;;;;;;9.67;8.57;;;5.30;95.90;;;;;;5019806;28;20656;-92
2022/12/05 06:09:53;;;;;;;11.30;9.87;;;5.30;95.90;;;;;;5018674;28;20181;-93
2022/12/05 06:12:21;;;;;;;13.37;9.30;;;5.30;95.90;;;;;;5018439;28;20659;-93
2022/12/05 06:14:49;;;;;;;13.27;10.40;;;5.30;95.90;;;;;;5019302;28;20663;-92
2022/12/05 06:17:15;;;;;;;12.77;9.97;;;5.30;95.90;;;;;;5018546;28;20217;-93
2022/12/05 06:19:40;;;;;;;12.70;10.60;;;5.30;95.90;;;;;;5017993;28;20193;-92
2022/12/05 06:22:07;;;;;;;13.40;10.87;;;5.30;95.90;;;;;;5018634;28;20191;-93
2022/12/05 06:24:32;;;;;;;12.70;11.37;;;5.30;95.90;;;;;;5019081;28;20225;-92
2022/12/05 06:26:58;;;;;;;15.13;10.60;;;5.30;95.90;;;;;;5018579;28;20548;-93
2022/12/05 06:29:24;;;;;;;16.30;12.03;;;5.30;95.90;;;;;;5017943;28;20169;-93
2022/12/05 06:31:52;;;;;;;17.97;12.43;;;5.30;95.90;;;;;;5016103;28;20181;-93
2022/12/05 06:34:18;;;;;;;15.30;11.60;;;5.30;95.90;;;;;;5015594;28;20196;-92
2022/12/05 06:36:43;;;;;;;19.07;11.93;;;5.30;95.90;;;;;;5017124;28;20506;-91
2022/12/05 06:39:09;;;;;;;18.93;13.00;;;5.20;95.90;;;;;;5016052;28;20185;-91
2022/12/05 06:41:35;;;;;;;21.10;13.70;;;5.20;95.90;;;;;;5016439;28;20176;-92
2022/12/05 06:44:01;;;;;;;23.77;14.53;;;5.20;95.90;;;;;;5015984;28;20200;-92
2022/12/05 06:46:26;;;;;;;23.80;14.97;;;5.20;95.90;;;;;;5016877;28;20181;-92
2022/12/05 06:48:54;;;;;;;19.97;14.60;;;5.20;95.90;;;;;;5015440;28;20375;-92
2022/12/05 06:51:20;;;;;;;26.77;16.10;;;5.20;95.90;;;;;;5015767;28;20295;-93
2022/12/05 06:53:46;;;;;;;23.60;16.37;;;5.20;95.90;;;;;;5015193;28;20287;-92
2022/12/05 06:56:14;;;;;;;30.53;18.03;;;5.20;95.90;;;;;;5014466;28;20665;-91
2022/12/05 06:58:41;;;;;;;32.73;17.67;;;5.20;95.90;;;;;;5014789;28;20543;-91
2022/12/05 07:03:59;;;;;;;38.43;20.37;;;5.20;95.80;;;;;;5016325;28;20202;-91
2022/12/05 07:06:26;;;;;;;39.67;21.37;;;5.20;95.80;;;;;;5017320;28;20180;-92
2022/12/05 07:08:53;;;;;;;38.07;19.37;;;5.20;95.80;;;;;;5015126;28;20322;-92
2022/12/05 07:11:19;;;;;;;42.63;23.00;;;5.20;95.80;;;;;;5014864;28;20212;-91
2022/12/05 07:13:44;;;;;;;39.77;21.77;;;5.10;95.70;;;;;;5016135;28;20201;-92
2022/12/05 07:16:10;;;;;;;46.13;23.73;;;5.10;95.70;;;;;;5015851;28;20657;-93
2022/12/05 07:18:36;;;;;;;42.33;21.67;;;5.10;95.70;;;;;;5015357;28;20253;-92
2022/12/05 07:21:04;;;;;;;44.83;23.70;;;5.10;95.60;;;;;;5015966;28;20195;-92
2022/12/05 07:23:30;;;;;;;47.93;24.73;;;5.10;95.60;;;;;;5014835;28;20220;-92
2022/12/05 07:25:56;;;;;;;54.00;26.57;;;5.10;95.50;;;;;;5014188;28;20611;-92
2022/12/05 07:28:23;;;;;;;45.57;25.00;;;5.10;95.50;;;;;;5014675;28;20215;-92
2022/12/05 07:30:48;;;;;;;53.27;26.63;;;5.10;95.40;;;;;;5013803;28;20176;-92
2022/12/05 07:33:14;;;;;;;55.23;26.73;;;5.10;95.40;;;;;;5013795;28;20252;-92
2022/12/05 07:35:40;;;;;;;53.83;27.57;;;5.00;95.40;;;;;;5013653;28;20651;-92
2022/12/05 07:38:05;;;;;;;52.43;24.70;;;5.10;95.40;;;;;;5013526;28;20189;-92
2022/12/05 07:40:31;;;;;;;47.83;24.53;;;5.00;95.40;;;;;;5015788;28;20191;-90
2022/12/05 07:43:17;;;;;;;51.83;27.07;;;5.00;95.40;;;;;;5015964;28;20181;-92
2022/12/05 07:45:43;;;;;;;40.87;20.73;;;5.00;95.30;;;;;;5014994;28;20181;-91
2022/12/05 07:48:08;;;;;;;47.53;24.27;;;5.00;95.30;;;;;;5020242;28;20203;-90
2022/12/05 07:50:36;;;;;;;48.30;25.43;;;4.90;95.20;;;;;;5014731;28;20179;-92
2022/12/05 07:53:02;;;;;;;57.93;27.70;;;5.00;95.20;;;;;;5016504;28;20173;-91
2022/12/05 07:55:27;;;;;;;52.90;27.00;;;4.90;95.20;;;;;;5016158;28;20183;-92
2022/12/05 07:57:53;;;;;;;46.27;27.57;;;5.00;95.20;;;;;;5016445;28;20181;-92
2022/12/05 08:00:19;;;;;;;57.17;28.47;;;5.00;95.20;;;;;;5016160;28;20191;-93
2022/12/05 08:02:50;;;;;;;50.60;25.77;;;4.90;95.20;;;;;;5015596;28;20194;-93
2022/12/05 08:05:16;;;;;;;66.77;29.20;;;4.90;95.10;;;;;;5014529;28;20214;-92
2022/12/05 08:07:51;;;;;;;52.97;26.03;;;4.80;95.10;;;;;;5014042;28;20200;-93
2022/12/05 08:10:16;;;;;;;59.07;26.87;;;4.80;95.10;;;;;;5014544;28;20183;-92
2022/12/05 08:12:42;;;;;;;54.20;25.97;;;4.80;95.10;;;;;;5014178;28;20634;-92
2022/12/05 08:15:08;;;;;;;59.43;27.87;;;4.80;95.00;;;;;;5014395;28;20519;-92
2022/12/05 08:17:34;;;;;;;60.77;29.87;;;4.80;95.00;;;;;;5014455;28;20184;-92
2022/12/05 08:20:01;;;;;;;57.97;25.90;;;4.80;95.00;;;;;;5014248;28;20180;-92
2022/12/05 08:22:26;;;;;;;61.73;28.23;;;4.80;95.00;;;;;;5015222;28;20206;-92
2022/12/05 08:24:52;;;;;;;58.10;27.03;;;4.70;94.90;;;;;;5014489;28;20698;-92
2022/12/05 08:27:20;;;;;;;59.83;27.47;;;4.70;94.90;;;;;;5015972;28;20295;-93
2022/12/05 08:29:46;;;;;;;61.53;27.80;;;4.60;94.80;;;;;;5013855;28;20174;-92
2022/12/05 08:32:14;;;;;;;57.53;27.67;;;4.70;94.90;;;;;;5014166;28;20226;-92
2022/12/05 08:34:40;;;;;;;64.70;30.13;;;4.70;94.80;;;;;;5014706;28;20208;-92
2022/12/05 08:37:06;;;;;;;60.43;27.67;;;4.60;94.80;;;;;;5012935;28;20203;-91
2022/12/05 08:39:31;;;;;;;65.40;30.10;;;4.70;94.80;;;;;;5012810;28;20184;-92
2022/12/05 08:41:57;;;;;;;61.00;29.90;;;4.60;94.80;;;;;;5013135;28;20180;-92
2022/12/05 08:44:23;;;;;;;73.03;31.80;;;4.60;94.80;;;;;;5014285;28;20266;-92
2022/12/05 08:46:50;;;;;;;66.00;29.23;;;4.60;94.80;;;;;;5014124;28;20637;-92
2022/12/05 08:49:17;;;;;;;76.50;31.87;;;4.50;94.80;;;;;;5014887;28;20186;-92
2022/12/05 08:51:43;;;;;;;70.03;31.37;;;4.50;94.80;;;;;;5014272;28;20186;-92
2022/12/05 08:54:09;;;;;;;90.57;33.97;;;4.60;94.80;;;;;;5016374;28;20199;-92
2022/12/05 08:56:35;;;;;;;72.43;30.80;;;4.60;94.80;;;;;;5020812;28;20208;-92
2022/12/05 08:59:01;;;;;;;79.83;32.73;;;4.60;94.90;;;;;;5017274;28;20176;-92
2022/12/05 09:01:39;;;;;;;85.90;35.57;;;4.50;94.90;;;;;;5021585;28;20273;-92
2022/12/05 09:14:31;;;;;;;90.33;37.27;;;4.50;95.00;;;;;;5035427;28;20229;-93
2022/12/05 09:16:58;;;;;;;91.30;37.60;;;4.60;95.00;;;;;;5037527;28;20171;-93
2022/12/05 09:19:26;;;;;;;89.73;35.37;;;4.60;95.10;;;;;;5036091;28;20298;-93
2022/12/05 09:21:52;;;;;;;93.70;37.40;;;4.60;95.10;;;;;;5036643;28;20173;-93
2022/12/05 09:24:18;;;;;;;86.90;35.67;;;4.50;95.10;;;;;;5036887;28;20191;-92
2022/12/05 09:26:44;;;;;;;75.13;33.47;;;4.60;95.10;;;;;;5038281;28;20265;-93
2022/12/05 09:29:12;;;;;;;90.60;37.17;;;4.60;95.10;;;;;;5036270;28;20293;-94
2022/12/05 09:31:37;;;;;;;92.37;36.63;;;4.60;95.20;;;;;;5036765;28;20177;-93
2022/12/05 09:34:03;;;;;;;92.00;35.97;;;4.60;95.20;;;;;;5046336;28;20286;-92
2022/12/05 09:36:30;;;;;;;90.00;35.37;;;4.60;95.10;;;;;;5039820;28;20178;-93
2022/12/05 09:39:03;;;;;;;88.50;33.10;;;4.50;95.10;;;;;;5040179;28;20194;-92
2022/12/05 09:44:50;;;;;;;92.83;37.07;;;4.50;95.10;;;;;;5041874;28;20205;-92
2022/12/05 09:47:30;;;;;;;98.73;36.87;;;4.50;95.10;;;;;;5038845;28;20281;-94
2022/12/05 09:50:12;;;;;;;96.60;37.67;;;4.40;95.10;;;;;;5039736;28;20232;-94
2022/12/05 09:52:42;;;;;;;93.60;35.30;;;4.30;95.10;;;;;;5038664;28;20163;-93
2022/12/05 09:55:18;;;;;;;82.13;31.43;;;4.30;95.10;;;;;;5039085;28;20167;-93
2022/12/05 09:57:53;;;;;;;86.90;32.00;;;4.30;95.10;;;;;;5037129;28;20226;-94
2022/12/05 10:00:19;;;;;;;92.63;31.50;;;4.20;95.10;;;;;;5039661;28;20168;-93
2022/12/05 10:24:46;;;;;;;109.43;44.03;;;4.20;95.10;;;;;;5033517;28;20217;-92
2022/12/05 10:27:25;;;;;;;104.43;43.20;;;4.10;95.10;;;;;;5038358;28;20196;-92
2022/12/05 10:30:22;;;;;;;111.53;41.30;;;4.10;95.10;;;;;;5044845;28;20182;-92
2022/12/05 10:45:46;;;;;;;108.63;40.63;;;3.90;95.10;;;;;;5017569;28;20210;-91
2022/12/05 10:48:18;;;;;;;117.10;41.43;;;3.80;95.10;;;;;;5020238;28;20636;-92
2022/12/05 10:50:53;;;;;;;112.93;44.10;;;3.90;95.10;;;;;;5028603;28;20195;-92
2022/12/05 10:53:38;;;;;;;116.57;43.43;;;3.90;95.10;;;;;;5036230;28;20289;-91
2022/12/05 10:56:35;;;;;;;107.87;41.97;;;3.80;95.10;;;;;;5028540;28;20158;-91
2022/12/05 11:45:57;;;;;;;106.83;39.27;;;3.80;95.10;;;;;;5052994;28;20217;-92
2022/12/05 12:19:41;;;;;;;71.90;33.23;;;3.70;94.90;;;;;;5052221;28;20220;-92
2022/12/05 12:22:26;;;;;;;84.87;35.57;;;3.70;94.80;;;;;;5052925;28;20176;-95
2022/12/05 12:25:04;;;;;;;72.47;34.57;;;3.60;94.80;;;;;;5053274;28;20196;-95
2022/12/05 12:28:08;;;;;;;73.47;34.40;;;3.60;94.70;;;;;;5053211;28;20220;-94
2022/12/05 12:30:45;;;;;;;71.50;32.37;;;3.60;94.60;;;;;;5058126;28;20212;-94
2022/12/05 12:54:45;;;;;;;75.53;32.87;;;3.70;94.40;;;;;;5050082;28;20281;-91
2022/12/05 12:57:26;;;;;;;75.53;35.60;;;3.60;94.40;;;;;;5060823;28;20173;-91
2022/12/05 13:00:03;;;;;;;75.10;35.80;;;3.60;94.40;;;;;;5059821;28;20158;-91
2022/12/05 13:03:07;;;;;;;74.10;37.50;;;3.70;94.40;;;;;;5059974;28;20166;-93
2022/12/05 13:05:46;;;;;;;76.00;36.33;;;3.70;94.40;;;;;;5056344;28;20195;-91
2022/12/05 13:08:40;;;;;;;73.87;36.30;;;3.70;94.40;;;;;;5042818;28;20220;-92
2022/12/05 13:11:15;;;;;;;69.27;34.30;;;3.70;94.40;;;;;;5061308;28;20174;-91
2022/12/05 13:14:00;;;;;;;78.13;35.13;;;3.70;94.50;;;;;;5060074;28;20210;-90
2022/12/05 13:44:11;;;;;;;69.07;33.50;;;3.70;94.40;;;;;;5023145;28;20254;-93
2022/12/05 13:46:38;;;;;;;62.73;32.07;;;3.60;94.40;;;;;;5036091;28;20269;-93
2022/12/05 13:49:26;;;;;;;64.80;33.47;;;3.60;94.40;;;;;;5035861;28;20219;-93
2022/12/05 13:51:52;;;;;;;61.07;32.97;;;3.60;94.40;;;;;;5036610;28;20191;-93
2022/12/05 13:54:22;;;;;;;66.50;32.40;;;3.60;94.40;;;;;;5037305;28;20199;-93
2022/12/05 13:57:00;;;;;;;70.00;34.63;;;3.60;94.40;;;;;;5039054;28;20701;-93
2022/12/05 13:59:56;;;;;;;68.47;33.90;;;3.60;94.50;;;;;;5037155;28;20171;-93
2022/12/05 14:02:40;;;;;;;66.03;32.67;;;3.60;94.40;;;;;;5021335;28;20183;-93
2022/12/05 14:05:18;;;;;;;60.43;33.60;;;3.60;94.50;;;;;;5021565;28;20210;-93
2022/12/05 14:07:53;;;;;;;75.57;34.27;;;3.60;94.50;;;;;;5019860;28;20677;-93
2022/12/05 14:10:21;;;;;;;65.20;32.57;;;3.50;94.50;;;;;;5036239;28;20209;-93
2022/12/05 14:12:59;;;;;;;61.50;32.73;;;3.50;94.50;;;;;;5036413;28;20206;-93
2022/12/05 14:15:32;;;;;;;59.77;32.07;;;3.60;94.50;;;;;;5039983;28;20186;-93
2022/12/05 14:18:15;;;;;;;63.50;32.37;;;3.50;94.50;;;;;;5023567;28;20184;-94
2022/12/05 14:21:07;;;;;;;70.70;33.83;;;3.50;94.50;;;;;;5043474;28;20207;-94
2022/12/05 14:24:03;;;;;;;63.07;33.33;;;3.50;94.50;;;;;;5038049;28;20610;-92
2022/12/05 14:26:56;;;;;;;76.23;33.63;;;3.50;94.50;;;;;;5028821;28;20191;-92
2022/12/05 14:29:51;;;;;;;64.07;32.93;;;3.50;94.40;;;;;;5035077;28;20208;-94
2022/12/05 14:32:39;;;;;;;65.67;32.97;;;3.50;94.50;;;;;;5053727;28;20212;-94
2022/12/05 14:45:33;;;;;;;61.07;32.23;;;3.50;94.50;;;;;;5883972;22;20234;-94
2022/12/05 14:51:36;;;;;;;67.50;33.30;;;3.50;94.50;;;;;;6013918;22;20241;-92
2022/12/05 14:57:12;;;;;;;66.47;34.33;;;3.50;94.50;;;;;;5183603;22;20251;-93
2022/12/05 14:59:52;;;;;;;65.53;33.37;;;3.50;94.40;;;;;;5016006;28;20212;-93
2022/12/05 15:02:41;;;;;;;71.73;34.20;;;3.50;94.40;;;;;;5019262;28;20583;-92
2022/12/05 15:05:30;;;;;;;68.23;33.47;;;3.50;94.40;;;;;;5083961;23;20268;-91
2022/12/05 15:07:57;;;;;;;64.33;33.50;;;3.50;94.40;;;;;;5037037;28;20203;-92
2022/12/05 15:10:57;;;;;;;60.97;32.73;;;3.50;94.40;;;;;;5041439;28;20188;-93
2022/12/05 15:13:35;;;;;;;60.57;32.50;;;3.50;94.40;;;;;;5047956;28;20207;-92
2022/12/05 15:16:56;;;;;;;66.50;32.90;;;3.50;94.40;;;;;;5043586;28;20178;-94
2022/12/05 15:20:07;;;;;;;58.10;29.93;;;3.50;94.50;;;;;;5045962;28;20179;-94
2022/12/05 15:22:36;;;;;;;58.17;29.93;;;3.50;94.50;;;;;;5045838;28;20652;-93
2022/12/05 15:25:26;;;;;;;60.27;30.07;;;3.50;94.50;;;;;;5040923;28;20192;-93
2022/12/05 15:28:04;;;;;;;59.63;28.57;;;3.40;94.50;;;;;;5043639;28;20192;-94
2022/12/05 15:30:31;;;;;;;54.30;29.60;;;3.50;94.50;;;;;;5045333;28;20164;-94
2022/12/05 15:32:57;;;;;;;58.43;30.70;;;3.50;94.50;;;;;;5046460;28;20553;-94
2022/12/05 15:35:26;;;;;;;55.13;28.60;;;3.50;94.60;;;;;;5049901;28;20210;-94
2022/12/05 15:38:03;;;;;;;54.53;28.03;;;3.50;94.50;;;;;;5052934;28;20183;-94
2022/12/05 15:40:37;;;;;;;49.43;28.53;;;3.50;94.50;;;;;;5043159;28;20195;-94
2022/12/05 15:43:26;;;;;;;53.63;27.90;;;3.50;94.60;;;;;;5043179;28;20173;-94
2022/12/05 15:46:22;;;;;;;53.00;29.73;;;3.50;94.60;;;;;;5044009;28;20176;-93
2022/12/05 15:48:52;;;;;;;55.50;29.63;;;3.40;94.50;;;;;;5043449;28;20210;-93
2022/12/05 15:51:20;;;;;;;57.20;30.30;;;3.40;94.60;;;;;;5047160;28;20174;-94
2022/12/05 15:53:53;;;;;;;47.53;28.73;;;3.40;94.60;;;;;;5055173;28;20188;-94
2022/12/05 15:56:27;;;;;;;53.77;30.63;;;3.40;94.60;;;;;;5058152;28;20200;-93
2022/12/05 15:59:11;;;;;;;57.87;31.93;;;3.50;94.70;;;;;;5058098;28;20172;-94
2022/12/05 16:02:07;;;;;;;60.13;35.78;;;3.50;94.60;;;;;;5056878;28;20406;-94
2022/12/05 16:04:44;;;;;;;53.97;29.40;;;3.50;94.70;;;;;;5060276;28;20207;-93
2022/12/05 16:07:20;;;;;;;51.50;30.23;;;3.50;94.70;;;;;;5062135;28;20205;-93
2022/12/05 16:09:46;;;;;;;55.27;29.30;;;3.40;94.70;;;;;;5061973;28;20167;-92
2022/12/05 16:12:34;;;;;;;57.67;29.87;;;3.40;94.70;;;;;;5061965;28;20164;-91
2022/12/05 16:15:04;;;;;;;47.00;28.37;;;3.40;94.70;;;;;;5058818;28;20187;-92
2022/12/05 16:37:24;;;;;;;44.10;26.63;;;3.20;94.70;;;;;;5264651;23;20219;-92
2022/12/05 17:26:28;;;;;;;44.67;25.03;;;3.20;94.70;;;;;;5117501;22;20218;-91
2022/12/05 17:28:54;;;;;;;46.33;27.40;;;3.20;94.80;;;;;;5051378;28;20220;-91
2022/12/05 17:33:55;;;;;;;47.93;27.87;;;3.20;94.80;;;;;;5062940;22;20464;-93
2022/12/05 17:36:21;;;;;;;40.37;26.83;;;3.20;94.80;;;;;;5039218;28;20229;-92